Time;durP1;ratioP1;P1;durP2;ratioP2;P2;SDS_P1;SDS_P2;PMS_P1;PMS_P2;Temp;Humidity;BMP_temperature;BMP_pressure;BME280_temperature;BME280_humidity;BME280_pressure;Samples;Min_cycle;Max_cycle;Signal;HPM_P1;HPM_P2
2023/06/06 08:56:47;;;;;;;14.02;9.50;;;;;;;16.47;90.01;101848.88;5097983;27;20266;-71
2023/06/06 08:59:14;;;;;;;20.58;9.15;;;;;;;16.58;89.64;101847.19;5100676;28;20576;-70
2023/06/06 09:01:40;;;;;;;12.95;8.85;;;;;;;16.69;87.80;101855.59;5092670;28;20067;-71
2023/06/06 09:04:07;;;;;;;13.40;9.23;;;;;;;16.77;89.33;101847.84;5089122;28;20963;-71
2023/06/06 09:06:38;;;;;;;12.25;8.02;;;;;;;16.86;86.00;101852.94;5082339;28;20488;-71
2023/06/06 09:09:07;;;;;;;15.07;10.20;;;;;;;16.98;84.61;101846.41;5108267;28;20040;-71
2023/06/06 09:11:33;;;;;;;15.50;8.65;;;;;;;17.05;85.49;101835.28;5088913;28;20024;-71
2023/06/06 09:13:58;;;;;;;15.10;9.00;;;;;;;17.07;81.67;101838.59;5091010;28;20030;-71
2023/06/06 09:16:26;;;;;;;18.95;8.55;;;;;;;17.19;83.16;101841.28;5093995;28;20016;-70
2023/06/06 09:18:51;;;;;;;14.20;8.55;;;;;;;17.43;83.92;101850.19;5090662;28;20043;-71
2023/06/06 09:21:18;;;;;;;12.85;8.98;;;;;;;17.40;79.45;101834.28;5091398;28;20016;-71
2023/06/06 09:23:44;;;;;;;13.00;8.32;;;;;;;17.44;78.83;101840.94;5091832;28;20015;-71
2023/06/06 09:26:20;;;;;;;13.13;7.85;;;;;;;17.57;77.96;101837.03;5088432;28;20019;-70
2023/06/06 09:28:47;;;;;;;12.65;7.85;;;;;;;17.65;76.85;101838.56;5109731;28;20103;-70
2023/06/06 09:31:29;;;;;;;16.02;8.52;;;;;;;17.80;78.51;101836.06;5091427;28;20458;-71
2023/06/06 09:33:56;;;;;;;15.85;8.50;;;;;;;17.89;73.51;101833.75;5081106;28;20486;-71
2023/06/06 09:36:27;;;;;;;12.90;7.90;;;;;;;17.96;75.10;101828.91;5079711;28;20103;-71
2023/06/06 09:39:08;;;;;;;13.82;8.10;;;;;;;17.87;73.88;101838.59;5088147;28;20024;-71
2023/06/06 09:41:48;;;;;;;13.43;8.25;;;;;;;18.00;77.26;101830.09;5079569;28;20032;-70
2023/06/06 09:44:28;;;;;;;13.98;7.85;;;;;;;18.12;75.22;101830.00;5108465;28;20051;-70
2023/06/06 09:47:03;;;;;;;11.27;7.45;;;;;;;18.31;76.77;101826.94;5106422;28;20515;-70
2023/06/06 09:49:37;;;;;;;15.52;8.23;;;;;;;18.37;72.83;101823.19;5098804;28;20355;-70
2023/06/06 09:52:04;;;;;;;13.68;8.10;;;;;;;18.42;71.83;101821.34;5079482;28;20347;-70
2023/06/06 09:54:31;;;;;;;14.43;7.85;;;;;;;18.49;70.97;101820.34;5108222;28;20024;-71
2023/06/06 09:56:57;;;;;;;12.52;8.40;;;;;;;18.64;70.22;101822.44;5091036;28;20370;-71
2023/06/06 09:59:27;;;;;;;16.50;8.07;;;;;;;18.68;68.37;101829.09;5106857;28;20469;-71
2023/06/06 10:02:05;;;;;;;13.82;7.68;;;;;;;18.87;68.76;101835.91;5085094;28;20067;-70
2023/06/06 10:04:32;;;;;;;14.77;7.63;;;;;;;18.83;68.68;101818.28;5093959;28;20074;-70
2023/06/06 10:07:02;;;;;;;12.55;7.40;;;;;;;18.95;67.78;101812.69;5065437;28;20041;-71
2023/06/06 10:09:30;;;;;;;11.85;7.32;;;;;;;19.10;66.07;101809.28;5057060;28;20024;-70
2023/06/06 10:12:00;;;;;;;13.95;7.55;;;;;;;19.13;64.97;101814.25;5074038;28;20525;-72
2023/06/06 10:14:28;;;;;;;12.85;7.30;;;;;;;19.35;66.43;101807.84;5065932;28;20023;-71
2023/06/06 10:16:58;;;;;;;14.43;8.23;;;;;;;19.36;64.87;101809.53;5090063;28;20108;-70
2023/06/06 10:19:25;;;;;;;15.10;7.55;;;;;;;19.37;64.15;101812.00;5076797;28;20103;-71
2023/06/06 10:21:52;;;;;;;19.58;7.03;;;;;;;19.44;65.44;101815.34;5074335;28;20032;-69
2023/06/06 10:24:17;;;;;;;16.45;6.68;;;;;;;19.60;65.07;101805.31;5090991;28;20448;-72
2023/06/06 10:27:03;;;;;;;17.15;7.57;;;;;;;19.73;64.71;101801.31;5092517;28;20065;-69
2023/06/06 10:29:39;;;;;;;11.65;7.40;;;;;;;19.80;63.43;101809.34;5094770;28;20012;-73
2023/06/06 10:32:12;;;;;;;13.02;7.60;;;;;;;19.87;63.58;101809.94;5075803;28;20027;-72
2023/06/06 10:34:41;;;;;;;11.43;6.50;;;;;;;20.13;63.88;101810.94;5076905;28;20028;-71
2023/06/06 10:37:15;;;;;;;11.23;6.90;;;;;;;20.16;61.70;101804.91;5076811;28;20016;-70
2023/06/06 10:39:47;;;;;;;12.88;7.10;;;;;;;20.19;59.70;101804.34;5063106;28;20028;-72
2023/06/06 10:42:15;;;;;;;14.20;6.60;;;;;;;20.36;60.90;101793.16;5074736;28;20020;-71
2023/06/06 10:44:56;;;;;;;13.65;6.43;;;;;;;20.38;61.14;101800.31;5076476;28;20024;-71
2023/06/06 10:47:23;;;;;;;10.25;6.05;;;;;;;20.58;59.99;101811.41;5092435;28;20073;-70
2023/06/06 10:50:07;;;;;;;11.85;5.80;;;;;;;20.64;59.48;101802.09;5075396;28;20028;-71
2023/06/06 10:52:50;;;;;;;14.10;7.18;;;;;;;20.71;58.32;101802.69;5076232;28;20055;-71
2023/06/06 10:55:39;;;;;;;9.82;6.00;;;;;;;20.81;57.74;101804.63;5094269;28;20127;-71
2023/06/06 10:58:18;;;;;;;11.63;6.57;;;;;;;20.96;57.24;101803.03;5064575;28;20045;-71
2023/06/06 11:00:45;;;;;;;14.98;6.18;;;;;;;21.06;56.43;101789.28;5066142;28;20063;-70
2023/06/06 11:03:13;;;;;;;9.13;5.82;;;;;;;21.22;57.89;101792.88;5105794;28;20039;-71
2023/06/06 11:06:00;;;;;;;12.40;6.30;;;;;;;21.25;57.35;101797.84;5114903;28;20373;-71
2023/06/06 11:08:53;;;;;;;9.60;5.60;;;;;;;21.34;57.09;101796.19;5107164;28;20050;-71
2023/06/06 11:11:28;;;;;;;10.55;6.35;;;;;;;21.45;55.41;101791.50;5091666;28;20059;-71
2023/06/06 11:14:06;;;;;;;9.60;5.80;;;;;;;21.51;55.15;101789.59;5092821;28;20043;-71
2023/06/06 11:16:38;;;;;;;10.00;5.60;;;;;;;21.56;54.68;101789.63;5075823;28;20047;-71
2023/06/06 11:19:11;;;;;;;13.57;5.75;;;;;;;21.68;54.32;101783.81;5075165;28;20024;-71
2023/06/06 11:21:38;;;;;;;10.85;6.05;;;;;;;21.74;53.77;101783.53;5074286;28;20020;-72
2023/06/06 11:24:05;;;;;;;9.85;6.03;;;;;;;21.82;53.52;101784.09;5075941;28;20027;-70
2023/06/06 11:26:33;;;;;;;13.15;5.75;;;;;;;21.90;53.74;101769.72;5075346;28;20016;-71
2023/06/06 11:29:00;;;;;;;10.82;6.68;;;;;;;21.87;53.31;101776.63;5066117;28;20359;-70
2023/06/06 11:31:27;;;;;;;11.43;5.45;;;;;;;22.10;53.65;101772.44;5066792;28;20016;-70
2023/06/06 11:34:02;;;;;;;10.20;5.63;;;;;;;22.20;53.30;101773.50;5074448;28;20024;-71
2023/06/06 11:36:29;;;;;;;12.98;5.60;;;;;;;22.32;52.64;101771.28;5073035;28;20510;-71
2023/06/06 11:39:06;;;;;;;11.32;6.18;;;;;;;22.26;52.35;101775.13;5073393;28;20024;-72
2023/06/06 11:41:43;;;;;;;12.77;6.07;;;;;;;22.19;52.30;101771.84;5075229;28;20028;-72
2023/06/06 11:44:16;;;;;;;8.82;5.47;;;;;;;22.42;51.35;101778.66;5073998;28;20027;-71
2023/06/06 11:46:52;;;;;;;11.80;5.60;;;;;;;22.42;51.30;101778.66;5065610;28;20483;-71
2023/06/06 11:49:27;;;;;;;10.20;5.90;;;;;;;22.55;51.33;101772.53;5054989;28;20054;-71
2023/06/06 11:52:05;;;;;;;15.50;5.95;;;;;;;22.61;51.31;101773.34;5055257;28;20404;-72
2023/06/06 11:54:41;;;;;;;10.40;5.75;;;;;;;22.58;51.69;101771.16;5055305;28;20032;-71
2023/06/06 11:57:13;;;;;;;9.38;5.30;;;;;;;22.63;50.86;101766.44;5054878;28;20054;-73
2023/06/06 11:59:44;;;;;;;14.45;5.60;;;;;;;22.70;51.20;101763.34;5054894;28;20021;-72
2023/06/06 12:02:12;;;;;;;10.00;5.43;;;;;;;22.91;50.80;101766.00;5075515;28;20057;-71
2023/06/06 12:04:46;;;;;;;10.13;5.10;;;;;;;22.95;50.83;101756.84;5093692;28;20537;-72
2023/06/06 12:07:12;;;;;;;9.98;5.00;;;;;;;23.08;50.53;101752.59;5113505;28;20019;-72
2023/06/06 12:09:37;;;;;;;9.02;5.13;;;;;;;23.25;50.56;101752.25;5095195;28;20343;-71
2023/06/06 12:12:04;;;;;;;12.65;5.60;;;;;;;23.26;49.73;101756.63;5108794;28;20461;-71
2023/06/06 12:14:31;;;;;;;9.57;5.50;;;;;;;23.34;49.34;101756.03;5095073;28;20146;-71
2023/06/06 12:17:07;;;;;;;8.68;4.63;;;;;;;23.44;49.13;101754.28;5112822;27;20462;-70
2023/06/06 12:19:33;;;;;;;13.80;4.85;;;;;;;23.61;48.88;101746.41;5096636;28;20062;-70
2023/06/06 12:21:59;;;;;;;15.50;4.50;;;;;;;23.73;48.12;101745.97;5093232;28;20047;-74
2023/06/06 12:24:26;;;;;;;6.72;4.20;;;;;;;23.91;47.98;101751.91;5113544;28;20462;-69
2023/06/06 12:26:53;;;;;;;7.40;4.47;;;;;;;24.08;46.84;101749.50;5110891;28;20053;-69
2023/06/06 12:29:41;;;;;;;11.45;4.07;;;;;;;24.11;47.38;101748.91;5091754;28;20030;-70
2023/06/06 12:32:17;;;;;;;7.43;4.20;;;;;;;24.27;48.20;101744.00;5113371;28;20027;-71
2023/06/06 12:34:48;;;;;;;8.35;4.68;;;;;;;24.22;46.57;101744.88;5094641;28;20172;-70
2023/06/06 12:37:14;;;;;;;10.02;4.50;;;;;;;24.26;46.79;101736.81;5077890;28;20494;-70
2023/06/06 12:39:43;;;;;;;15.10;4.95;;;;;;;24.24;46.97;101742.63;5078734;28;20474;-70
2023/06/06 12:42:19;;;;;;;9.80;4.60;;;;;;;24.27;46.95;101737.66;5113149;28;20020;-69
2023/06/06 12:44:46;;;;;;;8.00;4.60;;;;;;;24.33;45.20;101739.22;5090288;28;20023;-70
2023/06/06 12:47:13;;;;;;;10.10;4.82;;;;;;;24.27;44.79;101735.69;5112796;28;20024;-70
2023/06/06 12:49:39;;;;;;;11.55;5.00;;;;;;;24.22;45.03;101733.00;5111471;28;20035;-72
2023/06/06 12:52:05;;;;;;;8.32;4.20;;;;;;;24.39;46.04;101726.97;5094695;28;20384;-71
2023/06/06 12:54:34;;;;;;;6.35;3.90;;;;;;;24.49;44.36;101726.00;5094404;28;20055;-71
2023/06/06 12:56:59;;;;;;;5.93;3.35;;;;;;;24.65;42.41;101723.88;5088620;28;20062;-69
2023/06/06 12:59:26;;;;;;;33.63;5.30;;;;;;;24.69;41.77;101719.41;5094523;28;20448;-69
2023/06/06 13:01:52;;;;;;;11.35;3.78;;;;;;;24.88;43.37;101714.66;5109412;28;20070;-71
2023/06/06 13:04:18;;;;;;;9.27;3.97;;;;;;;25.08;42.77;101721.00;5094648;28;20446;-70
2023/06/06 13:06:44;;;;;;;10.32;4.80;;;;;;;25.10;43.04;101719.53;5107984;28;20045;-74
2023/06/06 13:09:11;;;;;;;7.05;3.95;;;;;;;25.22;43.05;101726.56;5087131;28;20055;-70
2023/06/06 13:11:37;;;;;;;9.48;3.60;;;;;;;25.24;42.23;101730.69;5073969;28;20386;-70
2023/06/06 13:14:02;;;;;;;12.18;4.72;;;;;;;25.31;41.08;101716.47;5097801;28;20016;-70
2023/06/06 13:16:28;;;;;;;4.78;2.95;;;;;;;25.40;38.68;101719.38;5091234;28;20055;-69
2023/06/06 13:18:54;;;;;;;7.32;3.15;;;;;;;25.54;39.13;101717.41;5093487;28;20028;-71
2023/06/06 13:21:19;;;;;;;8.38;3.65;;;;;;;25.64;41.07;101721.97;5110975;28;20031;-71
2023/06/06 13:23:45;;;;;;;9.23;4.10;;;;;;;25.46;40.39;101726.44;5097972;28;20377;-70
2023/06/06 13:26:12;;;;;;;8.00;3.20;;;;;;;25.47;38.80;101719.78;5112292;28;20076;-70
2023/06/06 13:28:37;;;;;;;11.40;4.47;;;;;;;25.49;38.34;101725.84;5112287;28;20032;-71
2023/06/06 13:31:03;;;;;;;6.60;3.38;;;;;;;25.25;38.38;101721.22;5117312;28;20120;-71
2023/06/06 13:33:29;;;;;;;8.65;3.17;;;;;;;25.24;38.18;101727.06;5100153;28;20359;-71
2023/06/06 13:35:54;;;;;;;12.65;3.60;;;;;;;25.35;38.10;101709.19;5092219;28;20035;-71
2023/06/06 13:38:19;;;;;;;5.50;3.28;;;;;;;25.54;38.55;101705.53;5078978;28;20019;-71
2023/06/06 13:40:45;;;;;;;5.70;3.00;;;;;;;25.58;36.15;101710.16;5112772;28;20061;-72
2023/06/06 13:43:11;;;;;;;7.45;3.00;;;;;;;25.81;38.30;101699.97;5115772;28;20054;-73
2023/06/06 13:45:39;;;;;;;8.65;3.50;;;;;;;25.95;38.14;101702.78;5096199;28;20024;-72
2023/06/06 13:48:05;;;;;;;9.15;3.38;;;;;;;25.95;37.70;101700.00;5098058;28;20116;-72
2023/06/06 13:50:31;;;;;;;6.72;3.05;;;;;;;25.98;37.33;101696.66;5097680;28;20525;-72
2023/06/06 13:52:57;;;;;;;9.85;3.55;;;;;;;26.03;37.39;101703.19;5110867;28;20580;-72
2023/06/06 13:55:22;;;;;;;4.47;2.88;;;;;;;26.14;37.50;101701.84;5107116;28;20093;-72
2023/06/06 13:57:52;;;;;;;5.18;2.90;;;;;;;26.24;35.98;101696.09;5114630;28;20053;-71
2023/06/06 14:00:19;;;;;;;6.90;2.67;;;;;;;26.46;34.76;101694.50;5097776;28;20110;-71
2023/06/06 14:02:45;;;;;;;6.90;3.03;;;;;;;26.61;34.55;101696.91;5112477;28;20105;-72
2023/06/06 14:05:11;;;;;;;5.90;2.65;;;;;;;26.41;34.14;101700.97;5115781;28;20023;-72
2023/06/06 14:07:36;;;;;;;5.68;2.90;;;;;;;26.67;34.74;101689.31;5114205;28;20026;-71
2023/06/06 14:10:02;;;;;;;6.05;2.67;;;;;;;26.78;34.69;101682.34;5094155;28;20433;-71
2023/06/06 14:12:27;;;;;;;5.18;2.60;;;;;;;26.88;34.48;101682.09;5095837;28;20088;-72
2023/06/06 14:14:53;;;;;;;8.38;2.80;;;;;;;26.97;35.27;101684.94;5097567;28;20110;-72
2023/06/06 14:17:19;;;;;;;6.72;2.70;;;;;;;27.01;32.31;101685.13;5115567;28;20366;-71
2023/06/06 14:19:50;;;;;;;7.85;2.58;;;;;;;27.17;34.15;101678.03;5115575;28;20075;-72
2023/06/06 14:22:27;;;;;;;4.40;2.80;;;;;;;27.16;33.55;101681.13;5093310;28;20031;-71
2023/06/06 14:24:56;;;;;;;6.00;2.92;;;;;;;27.12;33.29;101686.53;5101569;28;20034;-72
2023/06/06 14:27:24;;;;;;;4.95;2.50;;;;;;;26.93;33.06;101680.34;5098817;28;20065;-70
2023/06/06 14:29:49;;;;;;;4.75;2.92;;;;;;;26.58;33.55;101683.66;5115590;28;20019;-71
2023/06/06 14:32:15;;;;;;;5.25;2.92;;;;;;;26.18;34.11;101681.50;5115693;28;20475;-71
2023/06/06 14:34:43;;;;;;;4.25;2.63;;;;;;;25.86;34.06;101687.16;5101624;28;20041;-70
2023/06/06 14:37:09;;;;;;;5.57;2.80;;;;;;;25.80;34.13;101680.88;5113349;28;20039;-71
2023/06/06 14:39:34;;;;;;;4.38;2.75;;;;;;;26.04;34.07;101677.09;5106756;28;20462;-70
2023/06/06 14:42:00;;;;;;;5.43;3.00;;;;;;;26.09;33.83;101674.22;5087160;28;20027;-71
2023/06/06 14:44:30;;;;;;;5.63;3.35;;;;;;;26.09;34.13;101676.97;5113819;28;20494;-70
2023/06/06 14:46:56;;;;;;;4.95;2.83;;;;;;;26.21;34.54;101674.53;5107509;28;20110;-70
2023/06/06 14:49:21;;;;;;;6.43;3.00;;;;;;;26.37;34.52;101674.97;5110962;28;20106;-72
2023/06/06 14:51:47;;;;;;;6.25;3.22;;;;;;;26.77;34.87;101679.91;5115041;28;20447;-70
2023/06/06 14:54:13;;;;;;;8.70;3.20;;;;;;;26.96;34.31;101680.53;5091222;28;20037;-71
2023/06/06 14:56:39;;;;;;;5.47;2.65;;;;;;;26.79;33.98;101669.31;5108532;28;20474;-72
2023/06/06 14:59:04;;;;;;;6.85;3.17;;;;;;;26.61;34.92;101673.88;5114923;28;20030;-69
2023/06/06 15:01:30;;;;;;;7.13;3.30;;;;;;;26.63;33.38;101672.44;5093049;28;20074;-71
2023/06/06 15:03:56;;;;;;;4.32;2.65;;;;;;;26.70;32.62;101677.56;5113376;28;20111;-71
2023/06/06 15:06:21;;;;;;;5.70;2.92;;;;;;;26.85;33.78;101668.03;5112165;28;20374;-70
2023/06/06 15:08:47;;;;;;;5.65;2.88;;;;;;;26.95;31.98;101676.13;5113855;28;20073;-72
2023/06/06 15:11:12;;;;;;;3.30;2.50;;;;;;;26.89;31.18;101666.28;5114815;28;20027;-70
2023/06/06 15:13:37;;;;;;;5.43;2.80;;;;;;;27.17;31.97;101663.34;5115294;27;20062;-70
2023/06/06 15:16:08;;;;;;;7.63;2.70;;;;;;;27.21;30.68;101669.91;5096430;28;20359;-70
2023/06/06 15:18:35;;;;;;;8.60;2.97;;;;;;;27.32;31.69;101657.38;5113597;28;20045;-71
2023/06/06 15:21:01;;;;;;;8.43;2.70;;;;;;;27.45;31.42;101668.72;5114604;28;20024;-74
2023/06/06 15:23:26;;;;;;;9.13;2.70;;;;;;;27.60;31.82;101657.19;5088445;28;20020;-73
2023/06/06 15:25:52;;;;;;;4.38;2.60;;;;;;;27.71;31.38;101658.53;5109838;28;20031;-73
2023/06/06 15:28:17;;;;;;;7.97;2.90;;;;;;;27.45;30.84;101657.59;5096101;28;20027;-72
2023/06/06 15:30:44;;;;;;;4.97;2.85;;;;;;;27.38;31.04;101655.31;5112121;27;20034;-72
2023/06/06 15:33:09;;;;;;;5.28;2.78;;;;;;;27.11;30.33;101661.84;5103097;27;20030;-71
2023/06/06 15:35:45;;;;;;;6.15;2.88;;;;;;;27.23;31.70;101653.72;5119876;27;20036;-71
2023/06/06 15:38:23;;;;;;;5.20;2.90;;;;;;;27.55;31.77;101649.81;5097869;27;20106;-72
2023/06/06 15:40:58;;;;;;;5.05;2.97;;;;;;;27.65;31.32;101657.03;5093844;28;20055;-72
2023/06/06 15:43:31;;;;;;;5.57;2.70;;;;;;;27.89;30.96;101656.63;5093159;28;20415;-72
2023/06/06 15:45:57;;;;;;;7.05;2.92;;;;;;;27.75;30.18;101648.41;5097885;28;20043;-71
2023/06/06 15:48:23;;;;;;;7.53;3.00;;;;;;;28.02;30.96;101652.09;5113905;28;20065;-72
2023/06/06 15:50:48;;;;;;;5.55;2.70;;;;;;;28.20;30.56;101640.97;5113618;28;20015;-71
2023/06/06 15:53:14;;;;;;;8.15;2.83;;;;;;;28.22;29.43;101649.84;5095467;28;20020;-72
2023/06/06 15:55:40;;;;;;;6.28;3.00;;;;;;;28.46;29.34;101647.38;5108334;28;20413;-70
2023/06/06 15:58:05;;;;;;;4.82;2.83;;;;;;;28.54;28.71;101644.91;5089238;28;20019;-72
2023/06/06 16:00:31;;;;;;;5.25;2.60;;;;;;;28.31;28.82;101644.25;5086421;28;20447;-71
2023/06/06 16:02:56;;;;;;;8.02;3.20;;;;;;;28.11;30.02;101643.75;5111408;28;20098;-72
2023/06/06 16:05:21;;;;;;;6.30;2.80;;;;;;;27.61;29.01;101646.88;5088088;28;20020;-72
2023/06/06 16:07:47;;;;;;;6.07;2.70;;;;;;;27.19;29.72;101633.28;5122200;27;20035;-73
